UZ-0055 weather

Udurgi Airport
Udurgi, Buxoro, Uzbekistan

Public forecast

Using degrees Celsius for public forecast. Weather courtesy of forecast.io.

Closest aviation weather report (METAR) to Udurgi Airport

Closest report is Bukhara Airport, 5.1 nm (9.5 km) NE. Retrieved 2020/07/02 12:00 UTC (21 minutes ago):

UTSB 021200Z 36012KT CAVOK 33/M02 Q1012 R01/CLRD70 NOSIG

Closest aviation forecast (TAF) to Udurgi Airport

Closest forecast is Bukhara Airport, 5.1 nm (9.5 km) NE. Retrieved 2020/07/02 12:00 UTC (21 minutes ago):

TAF UTSB 021100Z 0212/0312 36010KT 7000 NSC TEMPO 0212/0223 32014G24KT 4000 -DS